AirNav   Air Wisconsin pilot careers
 
 334 users online  

KSSQ Shell Lake Municipal Airport
Shell Lake, Wisconsin, USA

GOING TO SHELL LAKE?


FAA INFORMATION EFFECTIVE 06 DECEMBER 2018

Location

FAA Identifier: SSQ
Lat/Long: 45-43-52.9700N / 091-55-14.3800W
45-43.882833N / 091-55.239667W
45.7313806 / -91.9206611
(estimated)
Elevation: 1233.1 ft. / 375.8 m (surveyed)
Variation: 01E (2000)
From city: 1 mile SE of SHELL LAKE, WI
Time zone: UTC -6 (UTC -5 during Daylight Saving Time)
Zip code: 54871

Airport Operations

Airport use: Open to the public
Control tower: no
ARTCC: MINNEAPOLIS CENTER
FSS: GREEN BAY FLIGHT SERVICE STATION
NOTAMs facility: GRB (NOTAM-D service available)
Attendance: UNATNDD
Wind indicator: lighted
Segmented circle: yes
Lights: ACTVT REIL RY 32; PAPI RY 14/32, & MIRL RY 14/32 - CTAF.
Beacon: white-green (lighted land airport)
Operates sunset to sunrise.
Taxiway lights: TWY LGTS AT ENTRANCE ONLY.

Airport Communications

CTAF/UNICOM: 122.8
WX AWOS-3PT at UBE (14 nm S): 119.175 (715-822-3452)
WX AWOS-3 at RPD (20 nm S): 120.525 (715-458-4481)
WX AWOS-3 at RZN (20 nm W): 118.325 (715-349-8563)
  • APCH/DEP SVC PRVDD BY MINNEAPOLIS ARTCC ON FREQS 126.45/276.4 (HAYWARD RCAG).

Nearby radio navigation aids

VOR radial/distance  VOR name  Freq  Var
RZNr104/19.7SIREN VOR/DME109.4002E
HYRr226/26.3HAYWARD VOR/DME113.4003E

 
NDB name  Hdg/Dist  Freq  Var  ID
BIG DOCTOR107/19.420301WBXR -... -..- .-.

Airport Services

Parking: hangars and tiedowns
Airframe service: NONE
Powerplant service: NONE
Bottled oxygen: NONE
Bulk oxygen: NONE

Runway Information

Runway 14/32

Dimensions: 3711 x 75 ft. / 1131 x 23 m
Surface: asphalt, in good condition
Runway edge lights: medium intensity
RUNWAY 14  RUNWAY 32
Latitude: 45-44.106667N45-43.659000N
Longitude: 091-55.536167W091-54.943333W
Elevation: 1231.2 ft.1227.6 ft.
Traffic pattern: leftleft
Runway heading: 136 magnetic, 137 true316 magnetic, 317 true
Displaced threshold: 619 ft.211 ft.
Declared distances: TORA:3711 TODA:3711 ASDA:3500 LDA:2881TORA:3286 TODA:3711 ASDA:3711 LDA:3500
Markings: nonprecision, in good conditionnonprecision, in good condition
Visual slope indicator: 2-light PAPI on left (4.00 degrees glide path)2-light PAPI on left (3.00 degrees glide path)
Runway end identifier lights: noyes
Touchdown point: yes, no lightsyes, no lights
Obstructions: 88 ft. trees, lighted, 1080 ft. from runway, 400 ft. left of centerline, 10:1 slope to clear
RWY 14 APCH RATIO 18:1 TO DSPLCD THLD; 93 FT TREES 1675 FT 400 L
15 ft. boat, 500 ft. from runway, 20:1 slope to clear

Airport Ownership and Management from official FAA records

Ownership: Publicly-owned
Owner: CITY OF SHELL LAKE
CITY HALL, P O BOX 520
SHELL LAKE, WI 54871
Phone 715-468-7679
Manager: GERRY WINCH
41 RIDGEWAY DR, P.O. BOX 520
SHELL LAKE, WI 54871
Phone (715) 296-3638

Airport Operational Statistics

Aircraft based on the field: 12
Single engine airplanes: 12
    
Aircraft operations: avg 34/day *
48% transient general aviation
48% local general aviation
4% air taxi
<1% military
* for 12-month period ending 11 July 2018

Additional Remarks

BIRDS ON & INVOF OF ARPT.

Instrument Procedures

NOTE: All procedures below are presented as PDF files. If you need a reader for these files, you should download the free Adobe Reader.

NOT FOR NAVIGATION. Please procure official charts for flight.
FAA instrument procedures published for use from 6 December 2018 at 0901Z to 3 January 2019 at 0900Z.

 
IAPs - Instrument Approach Procedures
RNAV (GPS) RWY 14   download (177KB)
RNAV (GPS) RWY 32   download (186KB)
NOTE: Special Take-Off Minimums/Departure Procedures apply   download (201KB)

Other nearby airports with instrument procedures:

KUBE - Cumberland Municipal Airport (14 nm S)
KRPD - Rice Lake Regional Airport - Carl's Field (20 nm S)
KRZN - Burnett County Airport (20 nm W)
KHYR - Sawyer County Airport (27 nm NE)
Y23 - Chetek Municipal-Southworth Airport (28 nm SE)
 
Loc | Ops | Rwys | IFR | FBO | Links
Com | Nav | Svcs | Stats | Notes


 
Area around KSSQ (Shell Lake Municipal Airport)
 
Road maps at: MapQuest Bing Google
 
Aerial photo
WARNING: Photo may not be current or correct
Aerial photo of KSSQ (Shell Lake Municipal Airport)
Photo by V. Eric Jensen, Shell Lake, WI
Photo taken 27-Aug-2003

Do you have a better or more recent aerial photo of Shell Lake Municipal Airport that you would like to share? If so, please send us your photo.

 
Sectional chart

 
Airport distance calculator
Flying to Shell Lake Municipal Airport? Find the distance to fly.

From to KSSQ

Sunrise and sunset
Times for 16-Dec-2018
 Local
(UTC-6)
 Zulu
(UTC)
Morning civil twilight07:0913:09
Sunrise07:4413:44
Sunset16:2322:23
Evening civil twilight16:5722:57

Current date and time
Zulu (UTC)  16-Dec-2018 10:40:20
Local (UTC-6)  16-Dec-2018 04:40:20
 
METAR
KUBE 
14nm S 
161015Z AUTO 00000KT 10SM CLR M01/M05 A2999 RMK AO2
KRPD 
18nm SE 
161015Z AUTO 00000KT 10SM CLR M03/M06 A3001 RMK AO2 T10291058
KRZN 
19nm W 
161015Z AUTO 23006KT 10SM CLR 00/M03 A2999 RMK AO2 T00011035
KHYR 
26nm NE 
160953Z AUTO 22005KT 10SM CLR M01/M06 A2998 RMK AO2 SLP165 T10061056
TAF
KHYR 
26nm NE 
160636Z 1607/1706 20012G19KT P6SM SCT250 WS020/23040KT FM160900 22005KT P6SM SCT250 FM161900 28008G15KT P6SM FEW250 FM170100 31006KT P6SM SCT250
NOTAMs
Click for the latest NOTAMs
NOTAMs are issued by the DoD/FAA and will open in a separate window not controlled by AirNav.

 

 
 

Would you like to see your business listed on this page?

 If your business provides an interesting product or service to pilots, flight crews, aircraft, or users of the Shell Lake Municipal Airport, you should consider listing it here.  To start the listing process, click on the button below
 
Add a business
 

Other Pages about Shell Lake Municipal Airport

Page from the Wisconsin airport directory (PDF)
 
Update a link
 
Copyright © AirNav, LLC. All rights reserved. Privacy Policy  Contact